sensor_id;sensor_type;location;lat;lon;timestamp;temperature;humidity
53045;DHT22;38930;52.766;6.884;2022-12-29T00:02:08;9.60;99.90
53045;DHT22;38930;52.766;6.884;2022-12-29T00:04:34;9.60;99.90
53045;DHT22;38930;52.766;6.884;2022-12-29T00:06:59;9.70;99.90
53045;DHT22;38930;52.766;6.884;2022-12-29T00:09:25;9.70;99.90
53045;DHT22;38930;52.766;6.884;2022-12-29T00:11:51;9.70;99.90
53045;DHT22;38930;52.766;6.884;2022-12-29T00:14:17;9.80;99.90
53045;DHT22;38930;52.766;6.884;2022-12-29T00:17:01;9.80;99.90
53045;DHT22;38930;52.766;6.884;2022-12-29T00:19:27;9.90;99.90
53045;DHT22;38930;52.766;6.884;2022-12-29T00:22:13;9.80;99.90
53045;DHT22;38930;52.766;6.884;2022-12-29T00:24:58;9.80;99.90
53045;DHT22;38930;52.766;6.884;2022-12-29T00:27:42;9.90;99.90
53045;DHT22;38930;52.766;6.884;2022-12-29T00:30:26;9.90;99.90
53045;DHT22;38930;52.766;6.884;2022-12-29T00:33:12;10.00;99.90
53045;DHT22;38930;52.766;6.884;2022-12-29T00:36:09;10.00;99.90
53045;DHT22;38930;52.766;6.884;2022-12-29T00:38:38;10.00;99.90
53045;DHT22;38930;52.766;6.884;2022-12-29T00:41:24;9.90;99.90
53045;DHT22;38930;52.766;6.884;2022-12-29T00:44:12;10.60;99.90
53045;DHT22;38930;52.766;6.884;2022-12-29T00:46:40;9.90;99.90
53045;DHT22;38930;52.766;6.884;2022-12-29T00:49:08;9.90;99.90
53045;DHT22;38930;52.766;6.884;2022-12-29T00:51:53;9.90;99.90
53045;DHT22;38930;52.766;6.884;2022-12-29T00:54:19;9.90;99.90
53045;DHT22;38930;52.766;6.884;2022-12-29T00:56:49;9.90;99.90
53045;DHT22;38930;52.766;6.884;2022-12-29T00:59:16;9.90;99.90
53045;DHT22;38930;52.766;6.884;2022-12-29T01:01:42;10.00;99.90
53045;DHT22;38930;52.766;6.884;2022-12-29T01:04:08;10.00;99.90
53045;DHT22;38930;52.766;6.884;2022-12-29T01:06:36;10.00;99.90
53045;DHT22;38930;52.766;6.884;2022-12-29T01:09:02;10.00;99.90
53045;DHT22;38930;52.766;6.884;2022-12-29T01:11:46;10.10;99.90
53045;DHT22;38930;52.766;6.884;2022-12-29T01:14:12;10.10;99.90
53045;DHT22;38930;52.766;6.884;2022-12-29T01:16:38;10.10;99.90
53045;DHT22;38930;52.766;6.884;2022-12-29T01:19:03;10.10;99.90
53045;DHT22;38930;52.766;6.884;2022-12-29T01:21:30;10.20;99.90
53045;DHT22;38930;52.766;6.884;2022-12-29T01:23:55;10.20;99.90
53045;DHT22;38930;52.766;6.884;2022-12-29T01:26:21;10.20;99.90
53045;DHT22;38930;52.766;6.884;2022-12-29T01:28:47;10.90;99.90
53045;DHT22;38930;52.766;6.884;2022-12-29T01:31:14;10.30;99.90
53045;DHT22;38930;52.766;6.884;2022-12-29T01:33:41;10.30;99.90
53045;DHT22;38930;52.766;6.884;2022-12-29T01:36:08;10.30;99.90
53045;DHT22;38930;52.766;6.884;2022-12-29T01:38:36;10.30;99.90
53045;DHT22;38930;52.766;6.884;2022-12-29T01:41:03;10.40;99.90
53045;DHT22;38930;52.766;6.884;2022-12-29T01:43:42;10.30;99.90
53045;DHT22;38930;52.766;6.884;2022-12-29T01:49:22;10.40;99.90
53045;DHT22;38930;52.766;6.884;2022-12-29T01:51:53;10.40;99.90
53045;DHT22;38930;52.766;6.884;2022-12-29T01:54:39;10.40;99.90
53045;DHT22;38930;52.766;6.884;2022-12-29T01:57:09;10.40;99.90
53045;DHT22;38930;52.766;6.884;2022-12-29T01:59:39;10.40;99.90
53045;DHT22;38930;52.766;6.884;2022-12-29T02:02:07;10.40;99.90
53045;DHT22;38930;52.766;6.884;2022-12-29T02:04:33;11.00;99.90
53045;DHT22;38930;52.766;6.884;2022-12-29T02:07:01;10.90;99.90
53045;DHT22;38930;52.766;6.884;2022-12-29T02:09:27;10.70;99.90
53045;DHT22;38930;52.766;6.884;2022-12-29T02:11:53;10.50;99.90
53045;DHT22;38930;52.766;6.884;2022-12-29T02:14:19;10.40;99.90
53045;DHT22;38930;52.766;6.884;2022-12-29T02:17:22;10.40;99.90
53045;DHT22;38930;52.766;6.884;2022-12-29T02:34:35;10.40;99.90
53045;DHT22;38930;52.766;6.884;2022-12-29T02:37:14;10.40;99.90
53045;DHT22;38930;52.766;6.884;2022-12-29T02:39:47;10.60;99.90
53045;DHT22;38930;52.766;6.884;2022-12-29T02:45:39;10.30;99.90
53045;DHT22;38930;52.766;6.884;2022-12-29T02:48:15;10.30;99.90
53045;DHT22;38930;52.766;6.884;2022-12-29T02:53:33;10.20;99.90
53045;DHT22;38930;52.766;6.884;2022-12-29T02:56:18;10.20;99.90
53045;DHT22;38930;52.766;6.884;2022-12-29T02:58:44;10.10;99.90
53045;DHT22;38930;52.766;6.884;2022-12-29T03:06:56;10.10;99.90
53045;DHT22;38930;52.766;6.884;2022-12-29T03:14:49;10.00;99.90
53045;DHT22;38930;52.766;6.884;2022-12-29T03:20:06;9.90;99.90
53045;DHT22;38930;52.766;6.884;2022-12-29T03:22:36;9.90;99.90
53045;DHT22;38930;52.766;6.884;2022-12-29T03:27:36;9.90;99.90
53045;DHT22;38930;52.766;6.884;2022-12-29T03:30:05;9.80;99.90
53045;DHT22;38930;52.766;6.884;2022-12-29T03:32:38;9.80;99.90
53045;DHT22;38930;52.766;6.884;2022-12-29T03:35:07;9.80;99.90
53045;DHT22;38930;52.766;6.884;2022-12-29T03:37:43;9.80;99.90
53045;DHT22;38930;52.766;6.884;2022-12-29T03:40:10;9.80;99.90
53045;DHT22;38930;52.766;6.884;2022-12-29T03:42:37;9.80;99.90
53045;DHT22;38930;52.766;6.884;2022-12-29T03:45:04;10.00;99.90
53045;DHT22;38930;52.766;6.884;2022-12-29T03:47:31;9.80;99.90
53045;DHT22;38930;52.766;6.884;2022-12-29T03:49:57;9.80;99.90
53045;DHT22;38930;52.766;6.884;2022-12-29T03:52:22;9.80;99.90
53045;DHT22;38930;52.766;6.884;2022-12-29T03:54:48;9.80;99.90
53045;DHT22;38930;52.766;6.884;2022-12-29T03:57:14;9.80;99.90
53045;DHT22;38930;52.766;6.884;2022-12-29T03:59:39;9.80;99.90
53045;DHT22;38930;52.766;6.884;2022-12-29T04:02:05;9.80;99.90
53045;DHT22;38930;52.766;6.884;2022-12-29T04:04:30;10.50;99.90
53045;DHT22;38930;52.766;6.884;2022-12-29T04:06:56;9.80;99.90
53045;DHT22;38930;52.766;6.884;2022-12-29T04:09:21;9.90;99.90
53045;DHT22;38930;52.766;6.884;2022-12-29T04:11:47;9.80;99.90
53045;DHT22;38930;52.766;6.884;2022-12-29T04:14:13;9.80;99.90
53045;DHT22;38930;52.766;6.884;2022-12-29T04:16:38;10.00;99.90
53045;DHT22;38930;52.766;6.884;2022-12-29T04:19:05;9.80;99.90
53045;DHT22;38930;52.766;6.884;2022-12-29T04:21:31;9.80;99.90
53045;DHT22;38930;52.766;6.884;2022-12-29T04:23:56;9.80;99.90
53045;DHT22;38930;52.766;6.884;2022-12-29T04:26:22;10.10;99.90
53045;DHT22;38930;52.766;6.884;2022-12-29T04:28:48;9.80;99.90
53045;DHT22;38930;52.766;6.884;2022-12-29T04:31:13;9.80;99.90
53045;DHT22;38930;52.766;6.884;2022-12-29T04:33:39;9.80;99.90
53045;DHT22;38930;52.766;6.884;2022-12-29T04:36:05;9.90;99.90
53045;DHT22;38930;52.766;6.884;2022-12-29T04:38:30;9.90;99.90
53045;DHT22;38930;52.766;6.884;2022-12-29T04:40:59;10.60;99.90
53045;DHT22;38930;52.766;6.884;2022-12-29T04:43:25;9.90;99.90
53045;DHT22;38930;52.766;6.884;2022-12-29T04:45:51;10.00;99.90
53045;DHT22;38930;52.766;6.884;2022-12-29T04:48:16;10.00;99.90
53045;DHT22;38930;52.766;6.884;2022-12-29T04:50:42;9.90;99.90
53045;DHT22;38930;52.766;6.884;2022-12-29T04:53:08;10.00;99.90
53045;DHT22;38930;52.766;6.884;2022-12-29T04:55:34;9.90;99.90
53045;DHT22;38930;52.766;6.884;2022-12-29T04:58:00;10.50;99.90
53045;DHT22;38930;52.766;6.884;2022-12-29T05:00:25;9.90;99.90
53045;DHT22;38930;52.766;6.884;2022-12-29T05:02:51;10.50;99.90
53045;DHT22;38930;52.766;6.884;2022-12-29T05:05:17;9.80;99.90
53045;DHT22;38930;52.766;6.884;2022-12-29T05:07:42;9.80;99.90
53045;DHT22;38930;52.766;6.884;2022-12-29T05:10:08;9.80;99.90
53045;DHT22;38930;52.766;6.884;2022-12-29T05:12:36;9.80;99.90
53045;DHT22;38930;52.766;6.884;2022-12-29T05:15:03;9.80;99.90
53045;DHT22;38930;52.766;6.884;2022-12-29T05:17:29;9.80;99.90
53045;DHT22;38930;52.766;6.884;2022-12-29T05:19:55;9.80;99.90
53045;DHT22;38930;52.766;6.884;2022-12-29T05:22:21;10.00;99.90
53045;DHT22;38930;52.766;6.884;2022-12-29T05:24:46;9.80;99.90
53045;DHT22;38930;52.766;6.884;2022-12-29T05:27:12;9.80;99.90
53045;DHT22;38930;52.766;6.884;2022-12-29T05:29:37;9.90;99.90
53045;DHT22;38930;52.766;6.884;2022-12-29T05:32:03;9.90;99.90
53045;DHT22;38930;52.766;6.884;2022-12-29T05:34:29;9.90;99.90
53045;DHT22;38930;52.766;6.884;2022-12-29T05:36:54;9.90;99.90
53045;DHT22;38930;52.766;6.884;2022-12-29T05:39:20;9.80;99.90
53045;DHT22;38930;52.766;6.884;2022-12-29T05:41:46;9.90;99.90
53045;DHT22;38930;52.766;6.884;2022-12-29T05:44:11;9.80;99.90
53045;DHT22;38930;52.766;6.884;2022-12-29T05:46:37;9.80;99.90
53045;DHT22;38930;52.766;6.884;2022-12-29T05:49:04;9.80;99.90
53045;DHT22;38930;52.766;6.884;2022-12-29T05:51:30;9.70;99.90
53045;DHT22;38930;52.766;6.884;2022-12-29T05:53:55;9.70;99.90
53045;DHT22;38930;52.766;6.884;2022-12-29T05:56:21;9.80;99.90
53045;DHT22;38930;52.766;6.884;2022-12-29T05:58:47;9.70;99.90
53045;DHT22;38930;52.766;6.884;2022-12-29T06:01:12;9.70;99.90
53045;DHT22;38930;52.766;6.884;2022-12-29T06:03:38;10.10;99.90
53045;DHT22;38930;52.766;6.884;2022-12-29T06:06:04;9.70;99.90
53045;DHT22;38930;52.766;6.884;2022-12-29T06:08:29;9.70;99.90
53045;DHT22;38930;52.766;6.884;2022-12-29T06:10:55;9.60;99.90
53045;DHT22;38930;52.766;6.884;2022-12-29T06:13:20;9.60;99.90
53045;DHT22;38930;52.766;6.884;2022-12-29T06:15:48;9.60;99.90
53045;DHT22;38930;52.766;6.884;2022-12-29T06:18:14;9.60;99.90
53045;DHT22;38930;52.766;6.884;2022-12-29T06:20:40;9.60;99.90
53045;DHT22;38930;52.766;6.884;2022-12-29T06:23:06;9.60;99.90
53045;DHT22;38930;52.766;6.884;2022-12-29T06:25:32;9.60;99.90
53045;DHT22;38930;52.766;6.884;2022-12-29T06:27:59;9.60;99.90
53045;DHT22;38930;52.766;6.884;2022-12-29T06:30:24;9.60;99.90
53045;DHT22;38930;52.766;6.884;2022-12-29T06:32:50;9.60;99.90
53045;DHT22;38930;52.766;6.884;2022-12-29T06:35:16;9.60;99.90
53045;DHT22;38930;52.766;6.884;2022-12-29T06:37:43;9.60;99.90
53045;DHT22;38930;52.766;6.884;2022-12-29T06:40:09;9.60;99.90
53045;DHT22;38930;52.766;6.884;2022-12-29T06:42:35;9.60;99.90
53045;DHT22;38930;52.766;6.884;2022-12-29T06:45:01;9.60;99.90
53045;DHT22;38930;52.766;6.884;2022-12-29T06:47:27;9.60;99.90
53045;DHT22;38930;52.766;6.884;2022-12-29T06:49:52;9.80;99.90
53045;DHT22;38930;52.766;6.884;2022-12-29T06:52:18;9.60;99.90
53045;DHT22;38930;52.766;6.884;2022-12-29T06:54:44;9.60;99.90
53045;DHT22;38930;52.766;6.884;2022-12-29T06:57:09;9.60;99.90
53045;DHT22;38930;52.766;6.884;2022-12-29T06:59:35;9.70;99.90
53045;DHT22;38930;52.766;6.884;2022-12-29T07:02:00;9.60;99.90
53045;DHT22;38930;52.766;6.884;2022-12-29T07:04:27;9.70;99.90
53045;DHT22;38930;52.766;6.884;2022-12-29T07:06:53;9.60;99.90
53045;DHT22;38930;52.766;6.884;2022-12-29T07:09:19;9.60;99.90
53045;DHT22;38930;52.766;6.884;2022-12-29T07:11:45;9.50;99.90
53045;DHT22;38930;52.766;6.884;2022-12-29T07:14:11;9.50;99.90
53045;DHT22;38930;52.766;6.884;2022-12-29T07:16:36;9.50;99.90
53045;DHT22;38930;52.766;6.884;2022-12-29T07:19:02;9.80;99.90
53045;DHT22;38930;52.766;6.884;2022-12-29T07:21:28;9.50;99.90
53045;DHT22;38930;52.766;6.884;2022-12-29T07:23:54;10.10;99.90
53045;DHT22;38930;52.766;6.884;2022-12-29T07:26:20;9.50;99.90
53045;DHT22;38930;52.766;6.884;2022-12-29T07:28:45;9.50;99.90
53045;DHT22;38930;52.766;6.884;2022-12-29T07:31:17;9.50;99.90
53045;DHT22;38930;52.766;6.884;2022-12-29T07:33:43;9.50;99.90
53045;DHT22;38930;52.766;6.884;2022-12-29T07:36:09;9.40;99.90
53045;DHT22;38930;52.766;6.884;2022-12-29T07:38:35;9.40;99.90
53045;DHT22;38930;52.766;6.884;2022-12-29T07:41:01;9.40;99.90
53045;DHT22;38930;52.766;6.884;2022-12-29T07:43:27;9.40;99.90
53045;DHT22;38930;52.766;6.884;2022-12-29T07:45:53;9.40;99.90
53045;DHT22;38930;52.766;6.884;2022-12-29T07:48:18;9.50;99.90
53045;DHT22;38930;52.766;6.884;2022-12-29T07:50:44;9.50;99.90
53045;DHT22;38930;52.766;6.884;2022-12-29T07:53:10;9.40;99.90
53045;DHT22;38930;52.766;6.884;2022-12-29T07:55:36;9.40;99.90
53045;DHT22;38930;52.766;6.884;2022-12-29T07:58:01;9.50;99.90
53045;DHT22;38930;52.766;6.884;2022-12-29T08:00:27;9.40;99.90
53045;DHT22;38930;52.766;6.884;2022-12-29T08:02:53;9.40;99.90
53045;DHT22;38930;52.766;6.884;2022-12-29T08:05:20;9.40;99.90
53045;DHT22;38930;52.766;6.884;2022-12-29T08:07:46;9.40;99.90
53045;DHT22;38930;52.766;6.884;2022-12-29T08:10:13;9.40;99.90
53045;DHT22;38930;52.766;6.884;2022-12-29T08:12:39;9.40;99.90
53045;DHT22;38930;52.766;6.884;2022-12-29T08:15:06;9.40;99.90
53045;DHT22;38930;52.766;6.884;2022-12-29T08:17:32;9.40;99.90
53045;DHT22;38930;52.766;6.884;2022-12-29T08:19:58;9.40;99.90
53045;DHT22;38930;52.766;6.884;2022-12-29T08:22:24;9.80;99.90
53045;DHT22;38930;52.766;6.884;2022-12-29T08:24:49;9.40;99.90
53045;DHT22;38930;52.766;6.884;2022-12-29T08:27:15;9.30;99.90
53045;DHT22;38930;52.766;6.884;2022-12-29T08:29:41;9.50;99.90
53045;DHT22;38930;52.766;6.884;2022-12-29T08:32:07;9.30;99.90
53045;DHT22;38930;52.766;6.884;2022-12-29T08:34:33;9.40;99.90
53045;DHT22;38930;52.766;6.884;2022-12-29T08:36:58;9.30;99.90
53045;DHT22;38930;52.766;6.884;2022-12-29T08:39:24;9.30;99.90
53045;DHT22;38930;52.766;6.884;2022-12-29T08:41:50;9.30;99.90
53045;DHT22;38930;52.766;6.884;2022-12-29T08:44:16;9.40;99.90
53045;DHT22;38930;52.766;6.884;2022-12-29T08:46:41;9.30;99.90
53045;DHT22;38930;52.766;6.884;2022-12-29T08:49:07;9.40;99.90
53045;DHT22;38930;52.766;6.884;2022-12-29T08:51:33;9.30;99.90
53045;DHT22;38930;52.766;6.884;2022-12-29T08:53:58;9.30;99.90
53045;DHT22;38930;52.766;6.884;2022-12-29T08:56:24;9.30;99.90
53045;DHT22;38930;52.766;6.884;2022-12-29T08:58:51;9.30;99.90
53045;DHT22;38930;52.766;6.884;2022-12-29T09:01:17;9.40;99.90
53045;DHT22;38930;52.766;6.884;2022-12-29T09:03:42;9.40;99.90
53045;DHT22;38930;52.766;6.884;2022-12-29T09:06:08;9.50;99.90
53045;DHT22;38930;52.766;6.884;2022-12-29T09:08:33;9.70;99.90
53045;DHT22;38930;52.766;6.884;2022-12-29T09:11:11;9.50;99.90
53045;DHT22;38930;52.766;6.884;2022-12-29T09:13:37;9.40;99.90
53045;DHT22;38930;52.766;6.884;2022-12-29T09:16:03;9.40;99.90
53045;DHT22;38930;52.766;6.884;2022-12-29T09:18:29;9.40;99.90
53045;DHT22;38930;52.766;6.884;2022-12-29T09:20:57;9.40;99.90
53045;DHT22;38930;52.766;6.884;2022-12-29T09:23:23;9.50;99.90
53045;DHT22;38930;52.766;6.884;2022-12-29T09:25:48;9.50;99.90
53045;DHT22;38930;52.766;6.884;2022-12-29T09:28:14;9.50;99.90
53045;DHT22;38930;52.766;6.884;2022-12-29T09:30:41;9.50;99.90
53045;DHT22;38930;52.766;6.884;2022-12-29T09:33:06;9.50;99.90
53045;DHT22;38930;52.766;6.884;2022-12-29T09:35:32;9.70;99.90
53045;DHT22;38930;52.766;6.884;2022-12-29T09:37:58;9.40;99.90
53045;DHT22;38930;52.766;6.884;2022-12-29T09:40:31;9.70;99.90
53045;DHT22;38930;52.766;6.884;2022-12-29T09:43:21;9.30;99.90
53045;DHT22;38930;52.766;6.884;2022-12-29T09:46:40;9.20;99.90
53045;DHT22;38930;52.766;6.884;2022-12-29T09:48:44;9.40;99.90
53045;DHT22;38930;52.766;6.884;2022-12-29T09:51:16;9.70;99.90
53045;DHT22;38930;52.766;6.884;2022-12-29T09:53:51;9.10;99.90
53045;DHT22;38930;52.766;6.884;2022-12-29T09:56:20;9.30;99.90
53045;DHT22;38930;52.766;6.884;2022-12-29T09:59:04;9.80;99.90
53045;DHT22;38930;52.766;6.884;2022-12-29T10:01:40;9.20;99.90
53045;DHT22;38930;52.766;6.884;2022-12-29T10:04:07;9.20;99.90
53045;DHT22;38930;52.766;6.884;2022-12-29T10:06:53;9.30;99.90
53045;DHT22;38930;52.766;6.884;2022-12-29T10:09:41;9.20;99.90
53045;DHT22;38930;52.766;6.884;2022-12-29T10:17:44;9.40;99.90
53045;DHT22;38930;52.766;6.884;2022-12-29T10:20:55;9.70;99.90
53045;DHT22;38930;52.766;6.884;2022-12-29T10:23:27;9.50;99.90
53045;DHT22;38930;52.766;6.884;2022-12-29T10:25:55;9.50;99.90
53045;DHT22;38930;52.766;6.884;2022-12-29T10:28:58;9.60;99.90
53045;DHT22;38930;52.766;6.884;2022-12-29T10:31:50;9.90;99.90
53045;DHT22;38930;52.766;6.884;2022-12-29T10:34:39;9.60;99.90
53045;DHT22;38930;52.766;6.884;2022-12-29T10:37:18;9.60;99.90
53045;DHT22;38930;52.766;6.884;2022-12-29T10:39:54;10.20;99.90
53045;DHT22;38930;52.766;6.884;2022-12-29T10:42:42;9.60;99.90
53045;DHT22;38930;52.766;6.884;2022-12-29T10:45:14;9.70;99.90
53045;DHT22;38930;52.766;6.884;2022-12-29T10:47:53;9.70;99.90
53045;DHT22;38930;52.766;6.884;2022-12-29T10:50:21;9.70;99.90
53045;DHT22;38930;52.766;6.884;2022-12-29T10:52:48;9.70;99.90
53045;DHT22;38930;52.766;6.884;2022-12-29T10:55:19;9.60;99.90
53045;DHT22;38930;52.766;6.884;2022-12-29T10:57:47;9.50;99.90
53045;DHT22;38930;52.766;6.884;2022-12-29T11:00:18;9.50;99.90
53045;DHT22;38930;52.766;6.884;2022-12-29T11:02:59;9.50;99.90
53045;DHT22;38930;52.766;6.884;2022-12-29T11:05:37;9.50;99.90
53045;DHT22;38930;52.766;6.884;2022-12-29T11:08:17;9.50;99.90
53045;DHT22;38930;52.766;6.884;2022-12-29T11:10:44;9.40;99.90
53045;DHT22;38930;52.766;6.884;2022-12-29T11:13:17;9.40;99.90
53045;DHT22;38930;52.766;6.884;2022-12-29T11:15:45;9.40;99.90
53045;DHT22;38930;52.766;6.884;2022-12-29T11:18:23;9.40;99.90
53045;DHT22;38930;52.766;6.884;2022-12-29T11:21:03;9.60;99.90
53045;DHT22;38930;52.766;6.884;2022-12-29T11:23:33;9.30;99.90
53045;DHT22;38930;52.766;6.884;2022-12-29T11:28:31;9.30;99.90
53045;DHT22;38930;52.766;6.884;2022-12-29T11:31:02;9.20;99.90
53045;DHT22;38930;52.766;6.884;2022-12-29T11:33:29;9.20;99.90
53045;DHT22;38930;52.766;6.884;2022-12-29T11:36:01;9.60;99.90
53045;DHT22;38930;52.766;6.884;2022-12-29T11:38:35;9.20;99.90
53045;DHT22;38930;52.766;6.884;2022-12-29T11:41:02;9.40;99.90
53045;DHT22;38930;52.766;6.884;2022-12-29T11:43:36;9.20;99.90
53045;DHT22;38930;52.766;6.884;2022-12-29T11:46:02;9.20;99.90
53045;DHT22;38930;52.766;6.884;2022-12-29T11:48:33;9.20;99.90
53045;DHT22;38930;52.766;6.884;2022-12-29T11:51:03;9.20;99.90
53045;DHT22;38930;52.766;6.884;2022-12-29T11:53:38;9.20;99.90
53045;DHT22;38930;52.766;6.884;2022-12-29T11:56:09;9.40;99.90
53045;DHT22;38930;52.766;6.884;2022-12-29T11:58:37;9.20;99.90
53045;DHT22;38930;52.766;6.884;2022-12-29T12:01:33;9.20;99.90
53045;DHT22;38930;52.766;6.884;2022-12-29T12:04:16;9.20;99.90
53045;DHT22;38930;52.766;6.884;2022-12-29T12:06:59;9.10;99.90
53045;DHT22;38930;52.766;6.884;2022-12-29T12:09:31;9.30;99.90
53045;DHT22;38930;52.766;6.884;2022-12-29T12:11:59;9.40;99.90
53045;DHT22;38930;52.766;6.884;2022-12-29T12:14:46;9.50;99.90
53045;DHT22;38930;52.766;6.884;2022-12-29T12:17:29;9.50;99.90
53045;DHT22;38930;52.766;6.884;2022-12-29T12:22:47;9.70;99.90
53045;DHT22;38930;52.766;6.884;2022-12-29T12:25:29;9.70;99.90
53045;DHT22;38930;52.766;6.884;2022-12-29T12:27:57;9.80;99.90
53045;DHT22;38930;52.766;6.884;2022-12-29T12:30:28;10.00;99.90
53045;DHT22;38930;52.766;6.884;2022-12-29T12:32:59;10.10;99.90
53045;DHT22;38930;52.766;6.884;2022-12-29T12:38:40;10.10;99.90
53045;DHT22;38930;52.766;6.884;2022-12-29T12:44:25;9.90;99.90
53045;DHT22;38930;52.766;6.884;2022-12-29T12:52:17;9.80;99.90
53045;DHT22;38930;52.766;6.884;2022-12-29T13:00:26;9.80;99.90
53045;DHT22;38930;52.766;6.884;2022-12-29T13:03:25;9.80;99.90
53045;DHT22;38930;52.766;6.884;2022-12-29T13:06:21;9.80;99.90
53045;DHT22;38930;52.766;6.884;2022-12-29T13:17:08;9.80;99.90
53045;DHT22;38930;52.766;6.884;2022-12-29T13:19:44;9.70;99.90
53045;DHT22;38930;52.766;6.884;2022-12-29T13:27:39;9.60;99.90
53045;DHT22;38930;52.766;6.884;2022-12-29T13:30:15;9.60;99.90
53045;DHT22;38930;52.766;6.884;2022-12-29T13:35:40;9.50;99.90
53045;DHT22;38930;52.766;6.884;2022-12-29T13:38:17;9.50;99.90
53045;DHT22;38930;52.766;6.884;2022-12-29T13:40:47;9.80;99.90
53045;DHT22;38930;52.766;6.884;2022-12-29T13:43:16;9.70;99.90
53045;DHT22;38930;52.766;6.884;2022-12-29T13:45:42;9.60;99.90
53045;DHT22;38930;52.766;6.884;2022-12-29T13:48:23;9.50;99.90
53045;DHT22;38930;52.766;6.884;2022-12-29T13:50:55;9.50;99.90
53045;DHT22;38930;52.766;6.884;2022-12-29T13:56:10;9.50;99.90
53045;DHT22;38930;52.766;6.884;2022-12-29T13:58:54;9.50;99.90
53045;DHT22;38930;52.766;6.884;2022-12-29T14:01:34;9.40;99.90
53045;DHT22;38930;52.766;6.884;2022-12-29T14:04:03;9.40;99.90
53045;DHT22;38930;52.766;6.884;2022-12-29T14:06:35;9.30;99.90
53045;DHT22;38930;52.766;6.884;2022-12-29T14:11:52;10.00;99.90
53045;DHT22;38930;52.766;6.884;2022-12-29T14:14:23;9.50;99.90
53045;DHT22;38930;52.766;6.884;2022-12-29T14:16:52;9.70;99.90
53045;DHT22;38930;52.766;6.884;2022-12-29T14:19:26;9.00;99.90
53045;DHT22;38930;52.766;6.884;2022-12-29T14:21:59;9.00;99.90
53045;DHT22;38930;52.766;6.884;2022-12-29T14:27:09;8.90;99.90
53045;DHT22;38930;52.766;6.884;2022-12-29T14:29:50;9.20;99.90
53045;DHT22;38930;52.766;6.884;2022-12-29T14:34:52;8.80;99.90
53045;DHT22;38930;52.766;6.884;2022-12-29T14:40:24;8.80;99.90
53045;DHT22;38930;52.766;6.884;2022-12-29T14:42:55;8.80;99.90
53045;DHT22;38930;52.766;6.884;2022-12-29T14:45:29;9.00;99.90
53045;DHT22;38930;52.766;6.884;2022-12-29T14:47:58;8.80;99.90
53045;DHT22;38930;52.766;6.884;2022-12-29T14:50:42;8.80;99.90
53045;DHT22;38930;52.766;6.884;2022-12-29T14:56:28;8.80;99.90
53045;DHT22;38930;52.766;6.884;2022-12-29T14:59:01;8.80;99.90
53045;DHT22;38930;52.766;6.884;2022-12-29T15:01:42;8.80;99.90
53045;DHT22;38930;52.766;6.884;2022-12-29T15:04:21;9.50;99.90
53045;DHT22;38930;52.766;6.884;2022-12-29T15:06:49;8.80;99.90
53045;DHT22;38930;52.766;6.884;2022-12-29T15:09:33;9.20;99.90
53045;DHT22;38930;52.766;6.884;2022-12-29T15:17:44;9.20;99.90
53045;DHT22;38930;52.766;6.884;2022-12-29T15:20:27;8.80;99.90
53045;DHT22;38930;52.766;6.884;2022-12-29T15:22:57;8.80;99.90
53045;DHT22;38930;52.766;6.884;2022-12-29T15:25:24;9.30;99.90
53045;DHT22;38930;52.766;6.884;2022-12-29T15:27:51;8.80;99.90
53045;DHT22;38930;52.766;6.884;2022-12-29T15:30:17;9.60;99.90
53045;DHT22;38930;52.766;6.884;2022-12-29T15:32:44;8.80;99.90
53045;DHT22;38930;52.766;6.884;2022-12-29T15:37:49;8.80;99.90
53045;DHT22;38930;52.766;6.884;2022-12-29T15:40:26;8.80;99.90
53045;DHT22;38930;52.766;6.884;2022-12-29T15:43:09;8.70;99.90
53045;DHT22;38930;52.766;6.884;2022-12-29T15:45:37;8.70;99.90
53045;DHT22;38930;52.766;6.884;2022-12-29T15:48:04;9.60;99.90
53045;DHT22;38930;52.766;6.884;2022-12-29T15:50:36;8.70;99.90
53045;DHT22;38930;52.766;6.884;2022-12-29T15:53:11;8.60;99.90
53045;DHT22;38930;52.766;6.884;2022-12-29T15:55:39;8.60;99.90
53045;DHT22;38930;52.766;6.884;2022-12-29T15:58:24;8.50;99.90
53045;DHT22;38930;52.766;6.884;2022-12-29T16:00:58;8.50;99.90
53045;DHT22;38930;52.766;6.884;2022-12-29T16:03:27;8.50;99.90
53045;DHT22;38930;52.766;6.884;2022-12-29T16:06:08;8.40;99.90
53045;DHT22;38930;52.766;6.884;2022-12-29T16:08:37;8.50;99.90
53045;DHT22;38930;52.766;6.884;2022-12-29T16:13:48;8.50;99.90
53045;DHT22;38930;52.766;6.884;2022-12-29T16:16:19;9.20;99.90
53045;DHT22;38930;52.766;6.884;2022-12-29T16:18:45;8.50;99.90
53045;DHT22;38930;52.766;6.884;2022-12-29T16:21:28;8.40;99.90
53045;DHT22;38930;52.766;6.884;2022-12-29T16:24:00;8.40;99.90
53045;DHT22;38930;52.766;6.884;2022-12-29T16:26:26;8.50;99.90
53045;DHT22;38930;52.766;6.884;2022-12-29T16:29:01;8.40;99.90
53045;DHT22;38930;52.766;6.884;2022-12-29T16:31:35;8.40;99.90
53045;DHT22;38930;52.766;6.884;2022-12-29T16:34:23;8.30;99.90
53045;DHT22;38930;52.766;6.884;2022-12-29T16:39:38;8.30;99.90
53045;DHT22;38930;52.766;6.884;2022-12-29T16:47:48;8.20;99.90
53045;DHT22;38930;52.766;6.884;2022-12-29T16:50:18;8.20;99.90
53045;DHT22;38930;52.766;6.884;2022-12-29T16:52:48;8.10;99.90
53045;DHT22;38930;52.766;6.884;2022-12-29T16:55:18;8.20;99.90
53045;DHT22;38930;52.766;6.884;2022-12-29T16:57:46;8.10;99.90
53045;DHT22;38930;52.766;6.884;2022-12-29T17:00:21;8.40;99.90
53045;DHT22;38930;52.766;6.884;2022-12-29T17:02:49;8.10;99.90
53045;DHT22;38930;52.766;6.884;2022-12-29T17:05:17;8.10;99.90
53045;DHT22;38930;52.766;6.884;2022-12-29T17:07:43;8.20;99.90
53045;DHT22;38930;52.766;6.884;2022-12-29T17:10:10;8.10;99.90
53045;DHT22;38930;52.766;6.884;2022-12-29T17:12:36;8.10;99.90
53045;DHT22;38930;52.766;6.884;2022-12-29T17:15:10;8.60;99.90
53045;DHT22;38930;52.766;6.884;2022-12-29T17:17:49;8.10;99.90
53045;DHT22;38930;52.766;6.884;2022-12-29T17:20:19;8.20;99.90
53045;DHT22;38930;52.766;6.884;2022-12-29T17:22:46;8.10;99.90
53045;DHT22;38930;52.766;6.884;2022-12-29T17:25:18;8.10;99.90
53045;DHT22;38930;52.766;6.884;2022-12-29T17:27:56;8.10;99.90
53045;DHT22;38930;52.766;6.884;2022-12-29T17:30:24;8.10;99.90
53045;DHT22;38930;52.766;6.884;2022-12-29T17:32:53;8.10;99.90
53045;DHT22;38930;52.766;6.884;2022-12-29T17:35:21;8.10;99.90
53045;DHT22;38930;52.766;6.884;2022-12-29T17:37:47;8.10;99.90
53045;DHT22;38930;52.766;6.884;2022-12-29T17:40:16;8.20;99.90
53045;DHT22;38930;52.766;6.884;2022-12-29T17:42:44;8.10;99.90
53045;DHT22;38930;52.766;6.884;2022-12-29T17:45:22;8.10;99.90
53045;DHT22;38930;52.766;6.884;2022-12-29T17:47:48;8.20;99.90
53045;DHT22;38930;52.766;6.884;2022-12-29T17:50:16;8.20;99.90
53045;DHT22;38930;52.766;6.884;2022-12-29T17:52:43;8.20;99.90
53045;DHT22;38930;52.766;6.884;2022-12-29T17:55:16;8.90;99.90
53045;DHT22;38930;52.766;6.884;2022-12-29T17:57:42;8.20;99.90
53045;DHT22;38930;52.766;6.884;2022-12-29T18:00:14;8.20;99.90
53045;DHT22;38930;52.766;6.884;2022-12-29T18:02:40;8.20;99.90
53045;DHT22;38930;52.766;6.884;2022-12-29T18:05:18;8.20;99.90